Island Venture — WDG3765 — position and weather

sailwx.info

Track history (hours):
 
Tides and Currents Weather Stations Pressure Air Temp Water Temp Dewpoint Dewpoint Depression Visibility Wind Speed Wind Dir Waves Ship Positions

Island Venture

Owner: Island Tug & Barge Co, Seattle, WA. More information available from US FCC via Universal Licensing System and Coast Guard Vessel Documentation Center.

Last reported at 2014-Oct-21 01:33 UTC. Time now 2014-Oct-21 02:13 UTC.
Position N 47°34' W 122°21'.

Type: Tug. MMSI: 367529420.

Date/timePositionNaut miles runAvg speedWind from/ knotsBaromVisibWave heightAir tempDewpointWater temp
2014-Oct-21 01:33N 47°34' W 122°21'0 5.5
2014-Oct-21 01:30N 47°34' W 122°21'0 0.3
2014-Oct-21 00:33N 47°34' W 122°21'0 0.7
2014-Oct-21 00:29N 47°34' W 122°21'3 3.3
2014-Oct-20 23:33N 47°36' W 122°25'0 6.8
2014-Oct-20 23:29N 47°35' W 122°25'7 7.2
2014-Oct-20 22:33N 47°29' W 122°30'7 6.9
2014-Oct-20 21:33N 47°23' W 122°32'6 5.8
2014-Oct-20 20:33N 47°17' W 122°32'4 3.7
2014-Oct-20 19:33N 47°14' W 122°35'6 6.3
2014-Oct-20 18:33N 47°08' W 122°39'0 0.2
2014-Oct-20 17:31N 47°08' W 122°39'0 0.0
2014-Oct-20 16:33N 47°08' W 122°39'0 0.0
2014-Oct-20 15:33N 47°08' W 122°39'0 0.0
2014-Oct-20 14:34N 47°08' W 122°39'0 0.0
2014-Oct-20 13:32N 47°08' W 122°39'0 0.0
2014-Oct-20 08:33N 47°08' W 122°39'5 4.6
2014-Oct-20 07:33N 47°12' W 122°36'6 6.1
2014-Oct-20 06:34N 47°18' W 122°33'5 5.2
2014-Oct-20 05:34N 47°23' W 122°32'6 5.6
2014-Oct-20 04:34N 47°29' W 122°31'0 4.2
2014-Oct-20 04:32N 47°29' W 122°30'5 5.4
2014-Oct-20 03:34N 47°33' W 122°27'1 5.5
2014-Oct-20 03:28N 47°34' W 122°26'3 3.3
2014-Oct-20 02:33N 47°35' W 122°22'0 0.0
2014-Oct-20 02:33N 47°35' W 122°22'1 1.0
2014-Oct-20 01:33N 47°34' W 122°21'0 0.0
2014-Oct-20 01:33N 47°34' W 122°21'0 0.0
2014-Oct-18 17:49N 47°34' W 122°21'1 2.5
2014-Oct-18 17:33N 47°34' W 122°21'1 3.9
2014-Oct-18 17:24N 47°34' W 122°21'2 2.6
2014-Oct-18 16:34N 47°36' W 122°23'0 2.7
2014-Oct-18 16:28N 47°37' W 122°23'5 5.3
2014-Oct-18 15:34N 47°39' W 122°28'0 5.0
2014-Oct-18 15:29N 47°40' W 122°28'5 5.0
2014-Oct-18 14:33N 47°44' W 122°27'0 4.7
2014-Oct-18 14:29N 47°45' W 122°27'5 5.4
2014-Oct-18 13:34N 47°50' W 122°28'0 3.7
2014-Oct-18 13:33N 47°50' W 122°28'5 4.9
2014-Oct-18 12:34N 47°54' W 122°30'0 3.2
2014-Oct-18 12:33N 47°54' W 122°30'4 4.1
2014-Oct-18 11:34N 47°57' W 122°35'4 4.1
2014-Oct-18 10:34N 48°01' W 122°38'5 4.5
2014-Oct-18 09:32N 48°05' W 122°40'10 5.2
2014-Oct-18 07:33N 48°12' W 122°52'6 5.6
2014-Oct-18 06:34N 48°16' W 122°56'5 5.2
2014-Oct-18 05:33N 48°21' W 123°00'5 5.0
2014-Oct-18 04:34N 48°25' W 123°04'5 5.7
2014-Oct-18 03:36N 48°29' W 123°09'0 5.7
2014-Oct-18 03:33N 48°30' W 123°10'2 6.0
2014-Oct-18 03:16N 48°31' W 123°11'4 5.9
2014-Oct-18 02:34N 48°35' W 123°13'2 5.5
2014-Oct-18 02:16N 48°37' W 123°14'4 6.1
2014-Oct-18 01:34N 48°41' W 123°16'6 6.2
2014-Oct-18 00:33N 48°45' W 123°09'3 3.3
2014-Oct-17 23:32N 48°46' W 123°13'0 0.2
2014-Oct-17 22:33N 48°46' W 123°13'0 0.2
2014-Oct-17 21:33N 48°46' W 123°13'1 0.6
2014-Oct-17 20:33N 48°46' W 123°12'1 0.8
2014-Oct-17 19:33N 48°46' W 123°13'0 0.3
2014-Oct-17 18:33N 48°46' W 123°13'2 2.1
2014-Oct-17 17:35N 48°45' W 123°10'0 5.8
2014-Oct-17 17:33N 48°45' W 123°10'0 1.3
2014-Oct-17 17:30N 48°45' W 123°10'4 3.7
2014-Oct-17 16:33N 48°42' W 123°13'2 6.1
2014-Oct-17 16:15N 48°41' W 123°15'5 6.9
2014-Oct-17 15:34N 48°37' W 123°13'6 6.2
2014-Oct-17 14:34N 48°31' W 123°11'7 6.6
2014-Oct-17 13:34N 48°26' W 123°04'8 7.5
2014-Oct-17 12:32N 48°19' W 122°57'7 7.4
2014-Oct-17 11:33N 48°14' W 122°51'10 8.9
2014-Oct-17 10:27N 48°08' W 122°40'8 8.4
2014-Oct-17 09:32N 48°00' W 122°36'5 7.8
2014-Oct-17 08:54N 47°57' W 122°31'2 7.2
2014-Oct-17 08:33N 47°55' W 122°28'8 7.6
2014-Oct-17 07:33N 47°47' W 122°26'4 7.4
2014-Oct-17 07:02N 47°43' W 122°26'3 6.9
2014-Oct-17 06:33N 47°40' W 122°27'0 6.2
2014-Oct-17 06:32N 47°40' W 122°27'6 5.7
2014-Oct-17 05:32N 47°35' W 122°22'1 1.3
2014-Oct-17 04:33N 47°34' W 122°21'0 0.0
2014-Oct-17 04:29N 47°34' W 122°21'1 0.7
2014-Oct-17 03:33N 47°34' W 122°21'0 0.0
2014-Oct-17 03:29N 47°34' W 122°21'3 3.3
2014-Oct-17 02:33N 47°35' W 122°25'0 6.9
2014-Oct-17 02:29N 47°35' W 122°25'6 6.8
2014-Oct-17 01:33N 47°30' W 122°30'5 7.0
2014-Oct-17 00:54N 47°25' W 122°31'2 6.5
2014-Oct-17 00:33N 47°23' W 122°32'7 6.8
2014-Oct-16 23:33N 47°16' W 122°33'12 2.3
2014-Oct-16 18:14N 47°11' W 122°50'3 2.8
2014-Oct-16 17:06N 47°10' W 122°46'4 7.3
2014-Oct-16 16:33N 47°11' W 122°41'8 8.4
2014-Oct-16 15:33N 47°18' W 122°33'8 8.2
2014-Oct-16 14:33N 47°26' W 122°31'6 7.6
2014-Oct-16 13:42N 47°32' W 122°28'1 8.4
2014-Oct-16 13:33N 47°33' W 122°27'3 8.0
2014-Oct-16 13:13N 47°35' W 122°25'3 4.7
2014-Oct-16 12:33N 47°34' W 122°21'0 3.2
2014-Oct-16 12:33N 47°34' W 122°21'1 0.5
2014-Oct-16 11:33N 47°34' W 122°21'1 5.9
2014-Oct-16 11:28N 47°35' W 122°22'1 0.8
2014-Oct-16 10:33N 47°35' W 122°22'0 1.8
2014-Oct-16 10:32N 47°35' W 122°22'6 5.9
2014-Oct-16 09:33N 47°40' W 122°27'0 6.4
2014-Oct-16 09:32N 47°41' W 122°27'6 6.5
2014-Oct-16 08:33N 47°47' W 122°26'0 6.0
2014-Oct-16 08:32N 47°47' W 122°26'7 7.0
2014-Oct-16 07:33N 47°53' W 122°22'0 7.0
2014-Oct-16 07:32N 47°54' W 122°22'7 6.8
2014-Oct-16 06:33N 47°58' W 122°15'4 3.7
2014-Oct-16 05:33N 48°01' W 122°11'0 0.1
2014-Oct-16 04:33N 48°01' W 122°11'0 0.0
2014-Oct-16 03:33N 48°01' W 122°11'0 0.0
2014-Oct-16 02:36N 48°01' W 122°11'0 0.0
2014-Oct-16 02:25N 48°01' W 122°11'0 0.0
2014-Oct-16 01:33N 48°01' W 122°11'0 0.0
2014-Oct-16 00:33N 48°01' W 122°11'0 0.0
2014-Oct-15 23:04N 48°01' W 122°11'0 0.0
2014-Oct-15 22:32N 48°01' W 122°11'0 0.0
2014-Oct-15 21:33N 48°01' W 122°11'0 0.0
2014-Oct-15 20:33N 48°01' W 122°11'0 0.0
2014-Oct-15 19:33N 48°01' W 122°11'2 1.7
2014-Oct-15 18:33N 48°01' W 122°14'7 6.6
2014-Oct-15 17:33N 47°56' W 122°20'710.9
2014-Oct-15 16:56N 47°50' W 122°24'411.0
2014-Oct-15 16:33N 47°46' W 122°25'111.0
2014-Oct-15 16:26N 47°44' W 122°26'910.1
2014-Oct-15 15:33N 47°36' W 122°22'110.2
2014-Oct-15 15:30N 47°35' W 122°22'1 1.5
2014-Oct-15 14:33N 47°34' W 122°21'0 0.1
2014-Oct-15 14:30N 47°34' W 122°21'1 0.9
2014-Oct-15 13:33N 47°35' W 122°22'0 3.7
2014-Oct-15 13:30N 47°35' W 122°22'3 3.2
2014-Oct-15 12:33N 47°35' W 122°26'0 4.3
2014-Oct-15 12:30N 47°35' W 122°26'5 4.8
2014-Oct-15 11:33N 47°31' W 122°29'0 5.3
2014-Oct-15 11:29N 47°30' W 122°29'5 5.5
2014-Oct-15 10:33N 47°26' W 122°32'2 4.8
2014-Oct-15 10:03N 47°23' W 122°32'3 5.5
2014-Oct-15 09:33N 47°21' W 122°33'7 6.8
2014-Oct-15 08:33N 47°14' W 122°35'13 5.4
2014-Oct-15 06:09N 47°09' W 122°53'1 0.1
2014-Oct-14 17:18N 47°10' W 122°55'1 1.2
2014-Oct-14 16:27N 47°10' W 122°53'4 4.3
2014-Oct-14 15:29N 47°10' W 122°47'5 5.2
2014-Oct-14 14:33N 47°07' W 122°42'3 2.9
2014-Oct-14 13:34N 47°09' W 122°38'0 0.0
2014-Oct-14 12:33N 47°09' W 122°38'0 0.0
2014-Oct-14 11:34N 47°09' W 122°38'0 0.0
2014-Oct-14 10:33N 47°09' W 122°38'0 0.0
2014-Oct-14 09:34N 47°09' W 122°38'0 0.0
2014-Oct-14 08:33N 47°09' W 122°38'0 0.0
2014-Oct-14 07:34N 47°09' W 122°38'0 0.0
2014-Oct-14 06:33N 47°09' W 122°38'0 0.0
2014-Oct-14 05:33N 47°09' W 122°38'0 0.0
2014-Oct-14 04:33N 47°09' W 122°38'3 3.2
2014-Oct-14 03:31N 47°12' W 122°36'7 7.1
2014-Oct-14 02:33N 47°18' W 122°33'7 7.3
2014-Oct-14 01:34N 47°25' W 122°32'4 4.4
2014-Oct-14 00:33N 47°30' W 122°30'5 7.2
2014-Oct-13 23:53N 47°34' W 122°26'3 7.6
2014-Oct-13 23:34N 47°36' W 122°24'0 7.1
2014-Oct-13 23:32N 47°36' W 122°24'4 4.0
2014-Oct-13 22:33N 47°33' W 122°20'0 0.0
2014-Oct-13 21:33N 47°33' W 122°20'0 0.0
2014-Oct-13 20:55N 47°33' W 122°20'0 0.0
2014-Oct-13 20:33N 47°33' W 122°20'0 0.3
2014-Oct-13 20:26N 47°33' W 122°20'2 2.0
2014-Oct-13 19:33N 47°34' W 122°21'0 0.0
2014-Oct-13 19:31N 47°34' W 122°21'0 0.0
2014-Oct-13 18:34N 47°34' W 122°21'0 0.0
2014-Oct-13 18:30N 47°34' W 122°21'0 0.0
2014-Oct-13 17:14N 47°34' W 122°21'0 0.0
2014-Oct-13 17:14N 47°34' W 122°21'0 0.0
2014-Oct-13 16:33N 47°34' W 122°21'0 0.0
2014-Oct-13 16:30N 47°34' W 122°21'0 0.0
2014-Oct-13 15:33N 47°34' W 122°21'0 0.0
2014-Oct-13 15:14N 47°34' W 122°21'0 0.0
2014-Oct-13 14:34N 47°34' W 122°21'0 0.0
2014-Oct-13 14:29N 47°34' W 122°21'0 0.4
2014-Oct-13 13:33N 47°34' W 122°21'0 6.5
2014-Oct-13 13:29N 47°34' W 122°21'1 0.8
2014-Oct-13 12:33N 47°34' W 122°21'0 0.4
2014-Oct-13 12:29N 47°34' W 122°21'1 0.0
2014-Oct-12 05:26N 47°34' W 122°21'0 0.2
2014-Oct-12 05:24N 47°34' W 122°21'0 0.5
2014-Oct-12 04:33N 47°35' W 122°22'0 4.2
2014-Oct-12 04:29N 47°35' W 122°22'3 2.8
2014-Oct-12 03:33N 47°37' W 122°24'0 5.7
2014-Oct-12 03:29N 47°37' W 122°25'5 5.2
2014-Oct-12 02:33N 47°41' W 122°28'0 5.7
2014-Oct-12 02:29N 47°42' W 122°28'5 5.8
2014-Oct-12 01:33N 47°47' W 122°27'6 6.4
2014-Oct-12 00:33N 47°53' W 122°30'7 7.3
2014-Oct-11 23:33N 47°59' W 122°36'3 6.7
2014-Oct-11 23:10N 48°01' W 122°38'6 7.0
2014-Oct-11 22:20N 48°07' W 122°41'6 7.5
2014-Oct-11 21:33N 48°11' W 122°47'7 6.1
2014-Oct-11 20:25N 48°18' W 122°48'6 6.5
2014-Oct-11 19:33N 48°23' W 122°45'7 7.3
2014-Oct-11 18:33N 48°31' W 122°44'8 7.7
2014-Oct-11 17:33N 48°38' W 122°44'6 5.9
2014-Oct-11 16:33N 48°44' W 122°46'7 6.3
2014-Oct-11 15:27N 48°48' W 122°55'5 5.6
2014-Oct-11 14:33N 48°51' W 123°01'5 5.3
2014-Oct-11 13:32N 48°54' W 123°08'5 5.2
2014-Oct-11 12:33N 48°57' W 123°14'5 5.3
2014-Oct-11 11:33N 49°01' W 123°20'6 5.7
2014-Oct-11 10:33N 49°04' W 123°26'5 5.2
2014-Oct-11 09:32N 49°08' W 123°32'6 6.0
2014-Oct-11 08:33N 49°12' W 123°38'7 6.3
2014-Oct-11 07:28N 49°17' W 123°46'23 5.9
2014-Oct-11 03:33N 49°31' W 124°14'5 5.3
2014-Oct-11 02:32N 49°34' W 124°21'  
Track history (hours):
 
Tides and Currents Weather Stations Pressure Air Temp Water Temp Dewpoint Dewpoint Depression Visibility Wind Speed Wind Dir Waves Ship Positions

Island Venture

Owner: Island Tug & Barge Co, Seattle, WA. More information available from US FCC via Universal Licensing System and Coast Guard Vessel Documentation Center.

Last reported at 2014-Oct-21 01:33 UTC. Time now 2014-Oct-21 02:13 UTC.
Position N 47°34' W 122°21'.

Type: Tug. MMSI: 367529420.

Date/timePositionNaut miles runAvg speedWind from/ knotsBaromVisibWave heightAir tempDewpointWater temp
2014-Oct-21 01:33N 47°34' W 122°21'0 5.5
2014-Oct-21 01:30N 47°34' W 122°21'0 0.3
2014-Oct-21 00:33N 47°34' W 122°21'0 0.7
2014-Oct-21 00:29N 47°34' W 122°21'3 3.3
2014-Oct-20 23:33N 47°36' W 122°25'0 6.8
2014-Oct-20 23:29N 47°35' W 122°25'7 7.2
2014-Oct-20 22:33N 47°29' W 122°30'7 6.9
2014-Oct-20 21:33N 47°23' W 122°32'6 5.8
2014-Oct-20 20:33N 47°17' W 122°32'4 3.7
2014-Oct-20 19:33N 47°14' W 122°35'6 6.3
2014-Oct-20 18:33N 47°08' W 122°39'0 0.2
2014-Oct-20 17:31N 47°08' W 122°39'0 0.0
2014-Oct-20 16:33N 47°08' W 122°39'0 0.0
2014-Oct-20 15:33N 47°08' W 122°39'0 0.0
2014-Oct-20 14:34N 47°08' W 122°39'0 0.0
2014-Oct-20 13:32N 47°08' W 122°39'0 0.0
2014-Oct-20 08:33N 47°08' W 122°39'5 4.6
2014-Oct-20 07:33N 47°12' W 122°36'6 6.1
2014-Oct-20 06:34N 47°18' W 122°33'5 5.2
2014-Oct-20 05:34N 47°23' W 122°32'6 5.6
2014-Oct-20 04:34N 47°29' W 122°31'0 4.2
2014-Oct-20 04:32N 47°29' W 122°30'5 5.4
2014-Oct-20 03:34N 47°33' W 122°27'1 5.5
2014-Oct-20 03:28N 47°34' W 122°26'3 3.3
2014-Oct-20 02:33N 47°35' W 122°22'0 0.0
2014-Oct-20 02:33N 47°35' W 122°22'1 1.0
2014-Oct-20 01:33N 47°34' W 122°21'0 0.0
2014-Oct-20 01:33N 47°34' W 122°21'0 0.0
2014-Oct-18 17:49N 47°34' W 122°21'1 2.5
2014-Oct-18 17:33N 47°34' W 122°21'1 3.9
2014-Oct-18 17:24N 47°34' W 122°21'2 2.6
2014-Oct-18 16:34N 47°36' W 122°23'0 2.7
2014-Oct-18 16:28N 47°37' W 122°23'5 5.3
2014-Oct-18 15:34N 47°39' W 122°28'0 5.0
2014-Oct-18 15:29N 47°40' W 122°28'5 5.0
2014-Oct-18 14:33N 47°44' W 122°27'0 4.7
2014-Oct-18 14:29N 47°45' W 122°27'5 5.4
2014-Oct-18 13:34N 47°50' W 122°28'0 3.7
2014-Oct-18 13:33N 47°50' W 122°28'5 4.9
2014-Oct-18 12:34N 47°54' W 122°30'0 3.2
2014-Oct-18 12:33N 47°54' W 122°30'4 4.1
2014-Oct-18 11:34N 47°57' W 122°35'4 4.1
2014-Oct-18 10:34N 48°01' W 122°38'5 4.5
2014-Oct-18 09:32N 48°05' W 122°40'10 5.2
2014-Oct-18 07:33N 48°12' W 122°52'6 5.6
2014-Oct-18 06:34N 48°16' W 122°56'5 5.2
2014-Oct-18 05:33N 48°21' W 123°00'5 5.0
2014-Oct-18 04:34N 48°25' W 123°04'5 5.7
2014-Oct-18 03:36N 48°29' W 123°09'0 5.7
2014-Oct-18 03:33N 48°30' W 123°10'2 6.0
2014-Oct-18 03:16N 48°31' W 123°11'4 5.9
2014-Oct-18 02:34N 48°35' W 123°13'2 5.5
2014-Oct-18 02:16N 48°37' W 123°14'4 6.1
2014-Oct-18 01:34N 48°41' W 123°16'6 6.2
2014-Oct-18 00:33N 48°45' W 123°09'3 3.3
2014-Oct-17 23:32N 48°46' W 123°13'0 0.2
2014-Oct-17 22:33N 48°46' W 123°13'0 0.2
2014-Oct-17 21:33N 48°46' W 123°13'1 0.6
2014-Oct-17 20:33N 48°46' W 123°12'1 0.8
2014-Oct-17 19:33N 48°46' W 123°13'0 0.3
2014-Oct-17 18:33N 48°46' W 123°13'2 2.1
2014-Oct-17 17:35N 48°45' W 123°10'0 5.8
2014-Oct-17 17:33N 48°45' W 123°10'0 1.3
2014-Oct-17 17:30N 48°45' W 123°10'4 3.7
2014-Oct-17 16:33N 48°42' W 123°13'2 6.1
2014-Oct-17 16:15N 48°41' W 123°15'5 6.9
2014-Oct-17 15:34N 48°37' W 123°13'6 6.2
2014-Oct-17 14:34N 48°31' W 123°11'7 6.6
2014-Oct-17 13:34N 48°26' W 123°04'8 7.5
2014-Oct-17 12:32N 48°19' W 122°57'7 7.4
2014-Oct-17 11:33N 48°14' W 122°51'10 8.9
2014-Oct-17 10:27N 48°08' W 122°40'8 8.4
2014-Oct-17 09:32N 48°00' W 122°36'5 7.8
2014-Oct-17 08:54N 47°57' W 122°31'2 7.2
2014-Oct-17 08:33N 47°55' W 122°28'8 7.6
2014-Oct-17 07:33N 47°47' W 122°26'4 7.4
2014-Oct-17 07:02N 47°43' W 122°26'3 6.9
2014-Oct-17 06:33N 47°40' W 122°27'0 6.2
2014-Oct-17 06:32N 47°40' W 122°27'6 5.7
2014-Oct-17 05:32N 47°35' W 122°22'1 1.3
2014-Oct-17 04:33N 47°34' W 122°21'0 0.0
2014-Oct-17 04:29N 47°34' W 122°21'1 0.7
2014-Oct-17 03:33N 47°34' W 122°21'0 0.0
2014-Oct-17 03:29N 47°34' W 122°21'3 3.3
2014-Oct-17 02:33N 47°35' W 122°25'0 6.9
2014-Oct-17 02:29N 47°35' W 122°25'6 6.8
2014-Oct-17 01:33N 47°30' W 122°30'5 7.0
2014-Oct-17 00:54N 47°25' W 122°31'2 6.5
2014-Oct-17 00:33N 47°23' W 122°32'7 6.8
2014-Oct-16 23:33N 47°16' W 122°33'12 2.3
2014-Oct-16 18:14N 47°11' W 122°50'3 2.8
2014-Oct-16 17:06N 47°10' W 122°46'4 7.3
2014-Oct-16 16:33N 47°11' W 122°41'8 8.4
2014-Oct-16 15:33N 47°18' W 122°33'8 8.2
2014-Oct-16 14:33N 47°26' W 122°31'6 7.6
2014-Oct-16 13:42N 47°32' W 122°28'1 8.4
2014-Oct-16 13:33N 47°33' W 122°27'3 8.0
2014-Oct-16 13:13N 47°35' W 122°25'3 4.7
2014-Oct-16 12:33N 47°34' W 122°21'0 3.2
2014-Oct-16 12:33N 47°34' W 122°21'1 0.5
2014-Oct-16 11:33N 47°34' W 122°21'1 5.9
2014-Oct-16 11:28N 47°35' W 122°22'1 0.8
2014-Oct-16 10:33N 47°35' W 122°22'0 1.8
2014-Oct-16 10:32N 47°35' W 122°22'6 5.9
2014-Oct-16 09:33N 47°40' W 122°27'0 6.4
2014-Oct-16 09:32N 47°41' W 122°27'6 6.5
2014-Oct-16 08:33N 47°47' W 122°26'0 6.0
2014-Oct-16 08:32N 47°47' W 122°26'7 7.0
2014-Oct-16 07:33N 47°53' W 122°22'0 7.0
2014-Oct-16 07:32N 47°54' W 122°22'7 6.8
2014-Oct-16 06:33N 47°58' W 122°15'4 3.7
2014-Oct-16 05:33N 48°01' W 122°11'0 0.1
2014-Oct-16 04:33N 48°01' W 122°11'0 0.0
2014-Oct-16 03:33N 48°01' W 122°11'0 0.0
2014-Oct-16 02:36N 48°01' W 122°11'0 0.0
2014-Oct-16 02:25N 48°01' W 122°11'0 0.0
2014-Oct-16 01:33N 48°01' W 122°11'0 0.0
2014-Oct-16 00:33N 48°01' W 122°11'0 0.0
2014-Oct-15 23:04N 48°01' W 122°11'0 0.0
2014-Oct-15 22:32N 48°01' W 122°11'0 0.0
2014-Oct-15 21:33N 48°01' W 122°11'0 0.0
2014-Oct-15 20:33N 48°01' W 122°11'0 0.0
2014-Oct-15 19:33N 48°01' W 122°11'2 1.7
2014-Oct-15 18:33N 48°01' W 122°14'7 6.6
2014-Oct-15 17:33N 47°56' W 122°20'710.9
2014-Oct-15 16:56N 47°50' W 122°24'411.0
2014-Oct-15 16:33N 47°46' W 122°25'111.0
2014-Oct-15 16:26N 47°44' W 122°26'910.1
2014-Oct-15 15:33N 47°36' W 122°22'110.2
2014-Oct-15 15:30N 47°35' W 122°22'1 1.5
2014-Oct-15 14:33N 47°34' W 122°21'0 0.1
2014-Oct-15 14:30N 47°34' W 122°21'1 0.9
2014-Oct-15 13:33N 47°35' W 122°22'0 3.7
2014-Oct-15 13:30N 47°35' W 122°22'3 3.2
2014-Oct-15 12:33N 47°35' W 122°26'0 4.3
2014-Oct-15 12:30N 47°35' W 122°26'5 4.8
2014-Oct-15 11:33N 47°31' W 122°29'0 5.3
2014-Oct-15 11:29N 47°30' W 122°29'5 5.5
2014-Oct-15 10:33N 47°26' W 122°32'2 4.8
2014-Oct-15 10:03N 47°23' W 122°32'3 5.5
2014-Oct-15 09:33N 47°21' W 122°33'7 6.8
2014-Oct-15 08:33N 47°14' W 122°35'13 5.4
2014-Oct-15 06:09N 47°09' W 122°53'1 0.1
2014-Oct-14 17:18N 47°10' W 122°55'1 1.2
2014-Oct-14 16:27N 47°10' W 122°53'4 4.3
2014-Oct-14 15:29N 47°10' W 122°47'5 5.2
2014-Oct-14 14:33N 47°07' W 122°42'3 2.9
2014-Oct-14 13:34N 47°09' W 122°38'0 0.0
2014-Oct-14 12:33N 47°09' W 122°38'0 0.0
2014-Oct-14 11:34N 47°09' W 122°38'0 0.0
2014-Oct-14 10:33N 47°09' W 122°38'0 0.0
2014-Oct-14 09:34N 47°09' W 122°38'0 0.0
2014-Oct-14 08:33N 47°09' W 122°38'0 0.0
2014-Oct-14 07:34N 47°09' W 122°38'0 0.0
2014-Oct-14 06:33N 47°09' W 122°38'0 0.0
2014-Oct-14 05:33N 47°09' W 122°38'0 0.0
2014-Oct-14 04:33N 47°09' W 122°38'3 3.2
2014-Oct-14 03:31N 47°12' W 122°36'7 7.1
2014-Oct-14 02:33N 47°18' W 122°33'7 7.3
2014-Oct-14 01:34N 47°25' W 122°32'4 4.4
2014-Oct-14 00:33N 47°30' W 122°30'5 7.2
2014-Oct-13 23:53N 47°34' W 122°26'3 7.6
2014-Oct-13 23:34N 47°36' W 122°24'0 7.1
2014-Oct-13 23:32N 47°36' W 122°24'4 4.0
2014-Oct-13 22:33N 47°33' W 122°20'0 0.0
2014-Oct-13 21:33N 47°33' W 122°20'0 0.0
2014-Oct-13 20:55N 47°33' W 122°20'0 0.0
2014-Oct-13 20:33N 47°33' W 122°20'0 0.3
2014-Oct-13 20:26N 47°33' W 122°20'2 2.0
2014-Oct-13 19:33N 47°34' W 122°21'0 0.0
2014-Oct-13 19:31N 47°34' W 122°21'0 0.0
2014-Oct-13 18:34N 47°34' W 122°21'0 0.0
2014-Oct-13 18:30N 47°34' W 122°21'0 0.0
2014-Oct-13 17:14N 47°34' W 122°21'0 0.0
2014-Oct-13 17:14N 47°34' W 122°21'0 0.0
2014-Oct-13 16:33N 47°34' W 122°21'0 0.0
2014-Oct-13 16:30N 47°34' W 122°21'0 0.0
2014-Oct-13 15:33N 47°34' W 122°21'0 0.0
2014-Oct-13 15:14N 47°34' W 122°21'0 0.0
2014-Oct-13 14:34N 47°34' W 122°21'0 0.0
2014-Oct-13 14:29N 47°34' W 122°21'0 0.4
2014-Oct-13 13:33N 47°34' W 122°21'0 6.5
2014-Oct-13 13:29N 47°34' W 122°21'1 0.8
2014-Oct-13 12:33N 47°34' W 122°21'0 0.4
2014-Oct-13 12:29N 47°34' W 122°21'1 0.0
2014-Oct-12 05:26N 47°34' W 122°21'0 0.2
2014-Oct-12 05:24N 47°34' W 122°21'0 0.5
2014-Oct-12 04:33N 47°35' W 122°22'0 4.2
2014-Oct-12 04:29N 47°35' W 122°22'3 2.8
2014-Oct-12 03:33N 47°37' W 122°24'0 5.7
2014-Oct-12 03:29N 47°37' W 122°25'5 5.2
2014-Oct-12 02:33N 47°41' W 122°28'0 5.7
2014-Oct-12 02:29N 47°42' W 122°28'5 5.8
2014-Oct-12 01:33N 47°47' W 122°27'6 6.4
2014-Oct-12 00:33N 47°53' W 122°30'7 7.3
2014-Oct-11 23:33N 47°59' W 122°36'3 6.7
2014-Oct-11 23:10N 48°01' W 122°38'6 7.0
2014-Oct-11 22:20N 48°07' W 122°41'6 7.5
2014-Oct-11 21:33N 48°11' W 122°47'7 6.1
2014-Oct-11 20:25N 48°18' W 122°48'6 6.5
2014-Oct-11 19:33N 48°23' W 122°45'7 7.3
2014-Oct-11 18:33N 48°31' W 122°44'8 7.7
2014-Oct-11 17:33N 48°38' W 122°44'6 5.9
2014-Oct-11 16:33N 48°44' W 122°46'7 6.3
2014-Oct-11 15:27N 48°48' W 122°55'5 5.6
2014-Oct-11 14:33N 48°51' W 123°01'5 5.3
2014-Oct-11 13:32N 48°54' W 123°08'5 5.2
2014-Oct-11 12:33N 48°57' W 123°14'5 5.3
2014-Oct-11 11:33N 49°01' W 123°20'6 5.7
2014-Oct-11 10:33N 49°04' W 123°26'5 5.2
2014-Oct-11 09:32N 49°08' W 123°32'6 6.0
2014-Oct-11 08:33N 49°12' W 123°38'7 6.3
2014-Oct-11 07:28N 49°17' W 123°46'23 5.9
2014-Oct-11 03:33N 49°31' W 124°14'5 5.3
2014-Oct-11 02:32N 49°34' W 124°21'  

Dump ship's entire track history